.
WxDataArchive / Data Records for 2011-10-01
2011-09-30 October 2011 2011-10-02

Data Records for Saturday, 01 October 2011

Time	Temp	Chill	HIndex	Humid	Dewpt	 Wind 	HiWind	WindDir	Rain 	Barom 
-----	----	-----	------	-----	-----	------	------	-------	-----	----- 
00:00	40.5	40.5	40.5	87	36.9	0	1	112	0.00	30.055 
00:05	40.3	40.3	40.3	88	37.0	0	2	112	0.00	30.055 
00:10	40.3	40.3	40.3	88	37.0	0	3	90	0.00	30.055 
00:15	40.3	40.3	40.3	88	37.0	0	2	90	0.00	30.051 
00:20	40.3	40.3	40.3	88	37.0	0	2	90	0.00	30.051 
00:25	40.3	40.3	40.3	89	37.3	0	2	90	0.00	30.051 
00:30	40.3	40.3	40.3	89	37.3	0	2	90	0.00	30.048 
00:35	40.3	40.3	40.3	89	37.3	0	3	292	0.00	30.048 
00:40	40.5	40.5	40.5	89	37.5	0	1	292	0.00	30.048 
00:45	40.5	40.5	40.5	89	37.5	0	3	292	0.00	30.046 
00:50	40.5	40.5	40.5	89	37.5	1	3	270	0.00	30.046 
00:55	40.5	40.5	40.5	89	37.5	1	4	270	0.00	30.046 
01:00	40.5	40.5	40.5	89	37.5	0	2	270	0.00	30.043 
01:05	40.5	40.5	40.5	89	37.5	1	3	270	0.00	30.043 
01:10	40.6	40.6	40.6	89	37.6	0	2	270	0.00	30.043 
01:15	40.6	40.6	40.6	89	37.6	0	2	270	0.00	30.038 
01:20	40.6	40.6	40.6	89	37.6	0	2	270	0.00	30.038 
01:25	40.8	40.8	40.8	89	37.8	0	2	270	0.00	30.038 
01:30	40.8	40.8	40.8	89	37.8	1	3	270	0.00	30.038 
01:35	40.9	40.9	40.9	89	37.9	0	2	270	0.00	30.038 
01:40	40.9	40.9	40.9	88	37.6	1	4	292	0.00	30.038 
01:45	41.1	41.1	41.1	88	37.8	1	3	292	0.00	30.034 
01:50	41.1	41.1	41.1	88	37.8	0	3	292	0.00	30.034 
01:55	41.1	41.1	41.1	88	37.8	2	3	292	0.00	30.034 
02:00	41.2	41.2	41.2	88	37.9	1	4	292	0.00	30.035 
02:05	41.2	41.2	41.2	88	37.9	1	3	270	0.00	30.035 
02:10	41.2	41.2	41.2	88	37.9	1	3	270	0.00	30.035 
02:15	41.2	41.2	41.2	87	37.6	0	3	315	0.00	30.038 
02:20	41.2	41.2	41.2	87	37.6	0	2	22	0.00	30.038 
02:25	41.2	41.2	41.2	86	37.3	0	2	315	0.00	30.038 
02:30	41.2	41.2	41.2	86	37.3	1	3	292	0.00	30.033 
02:35	41.2	41.2	41.2	85	37.0	1	3	292	0.00	30.033 
02:40	41.2	41.2	41.2	85	37.0	1	4	292	0.00	30.033 
02:45	41.3	41.3	41.3	85	37.1	1	3	292	0.00	30.040 
02:50	41.3	41.3	41.3	84	36.8	1	3	292	0.00	30.040 
02:55	41.3	41.3	41.3	84	36.8	1	4	292	0.00	30.040 
03:00	41.5	41.5	41.5	83	36.7	2	5	270	0.00	30.040 
03:05	41.6	41.6	41.6	83	36.8	1	3	338	0.00	30.040 
03:10	41.6	41.6	41.6	83	36.8	1	5	338	0.00	30.040 
03:15	41.6	41.6	41.6	83	36.8	0	3	270	0.00	30.041 
03:20	41.6	41.6	41.6	82	36.5	1	4	292	0.00	30.041 
03:25	41.6	41.6	41.6	82	36.5	1	3	292	0.00	30.041 
03:30	41.8	41.8	41.8	82	36.7	1	4	292	0.00	30.041 
03:35	41.8	41.8	41.8	82	36.7	1	4	292	0.00	30.041 
03:40	41.9	41.9	41.9	82	36.8	1	3	292	0.00	30.041 
03:45	41.9	41.9	41.9	81	36.5	1	3	315	0.00	30.040 
03:50	42.1	42.1	42.1	81	36.7	1	3	315	0.00	30.040 
03:55	42.1	42.1	42.1	81	36.7	1	4	338	0.00	30.040 
04:00	42.2	42.2	42.2	81	36.8	1	3	315	0.00	30.041 
04:05	42.2	42.2	42.2	81	36.8	1	4	270	0.00	30.041 
04:10	42.2	42.2	42.2	80	36.5	1	4	338	0.00	30.041 
04:15	42.3	42.3	42.3	79	36.3	1	9	292	0.00	30.044 
04:20	42.3	42.3	42.3	79	36.3	1	4	270	0.00	30.044 
04:25	42.5	42.5	42.5	79	36.5	1	3	338	0.00	30.044 
04:30	42.5	42.5	42.5	79	36.5	0	3	292	0.00	30.046 
04:35	42.5	42.5	42.5	78	36.1	1	6	338	0.00	30.046 
04:40	42.5	42.5	42.5	78	36.1	0	3	315	0.00	30.046 
04:45	42.5	42.5	42.5	78	36.1	0	5	315	0.00	30.051 
04:50	42.6	42.6	42.6	78	36.2	1	4	315	0.00	30.051 
04:55	42.6	42.6	42.6	77	35.9	1	5	292	0.00	30.051 
05:00	42.6	42.6	42.6	78	36.2	1	3	270	0.00	30.052 
05:05	42.8	42.8	42.8	77	36.1	1	5	315	0.00	30.052 
05:10	42.8	42.8	42.8	77	36.1	1	4	270	0.00	30.052 
05:15	42.8	42.8	42.8	78	36.4	1	5	270	0.00	30.057 
05:20	42.8	42.8	42.8	78	36.4	1	5	292	0.00	30.057 
05:25	42.8	42.8	42.8	78	36.4	0	3	338	0.00	30.057 
05:30	42.8	42.8	42.8	78	36.4	1	6	270	0.00	30.061 
05:35	42.8	42.8	42.8	78	36.4	1	4	292	0.00	30.061 
05:40	42.8	42.8	42.8	78	36.4	0	3	292	0.00	30.061 
05:45	42.8	42.8	42.8	78	36.4	1	3	292	0.00	30.063 
05:50	42.8	42.8	42.8	78	36.4	1	2	338	0.00	30.063 
05:55	42.8	42.8	42.8	78	36.4	1	3	270	0.00	30.063 
06:00	42.8	42.8	42.8	78	36.4	1	5	292	0.00	30.070 
06:05	42.8	42.8	42.8	79	36.7	1	4	292	0.00	30.070 
06:10	42.8	42.8	42.8	78	36.4	0	4	270	0.00	30.070 
06:15	42.8	42.8	42.8	79	36.7	0	2	270	0.00	30.074 
06:20	42.8	42.8	42.8	78	36.4	1	5	292	0.00	30.074 
06:25	42.9	42.9	42.9	78	36.5	1	4	270	0.00	30.074 
06:30	42.9	42.9	42.9	78	36.5	1	4	270	0.00	30.074 
06:35	42.9	42.9	42.9	78	36.5	0	3	315	0.00	30.074 
06:40	42.8	42.8	42.8	78	36.4	1	4	315	0.00	30.074 
06:45	42.8	42.8	42.8	78	36.4	0	2	338	0.00	30.080 
06:50	42.9	42.9	42.9	78	36.5	1	4	270	0.00	30.080 
06:55	42.8	42.8	42.8	78	36.4	1	3	0	0.00	30.080 
07:00	42.9	42.9	42.9	78	36.5	0	3	292	0.00	30.090 
07:05	42.8	42.8	42.8	78	36.4	0	4	292	0.00	30.090 
07:10	42.8	42.8	42.8	78	36.4	1	7	292	0.00	30.090 
07:15	42.8	42.8	42.8	78	36.4	1	4	338	0.00	30.097 
07:20	42.8	42.8	42.8	78	36.4	1	3	22	0.00	30.097 
07:25	42.6	42.6	42.6	78	36.2	0	3	0	0.00	30.097 
07:30	42.5	42.5	42.5	78	36.1	1	3	292	0.00	30.104 
07:35	42.3	42.3	42.3	78	35.9	0	3	315	0.00	30.104 
07:40	42.2	42.2	42.2	78	35.8	0	3	315	0.00	30.104 
07:45	41.9	41.9	41.9	79	35.9	0	2	338	0.00	30.109 
07:50	41.8	41.8	41.8	79	35.8	1	4	292	0.00	30.109 
07:55	41.6	41.6	41.6	79	35.6	1	4	292	0.00	30.109 
08:00	41.5	41.5	41.5	80	35.8	1	4	292	0.00	30.118 
08:05	41.3	41.3	41.3	80	35.6	1	4	338	0.00	30.118 
08:10	41.3	41.3	41.3	80	35.6	1	3	315	0.00	30.118 
08:15	41.2	41.2	41.2	80	35.5	1	4	292	0.00	30.127 
08:20	41.2	41.2	41.2	81	35.8	1	4	270	0.00	30.127 
08:25	41.2	41.2	41.2	81	35.8	1	4	270	0.00	30.127 
08:30	41.2	41.2	41.2	81	35.8	2	5	270	0.00	30.132 
08:35	41.3	41.3	41.3	81	35.9	1	5	292	0.00	30.132 
08:40	41.2	41.2	41.2	81	35.8	1	5	292	0.00	30.132 
08:45	41.2	41.2	41.2	81	35.8	1	4	292	0.00	30.143 
08:50	41.3	41.3	41.3	81	35.9	1	5	270	0.00	30.143 
08:55	41.5	41.5	41.5	81	36.1	1	4	270	0.00	30.143 
09:00	41.6	41.6	41.6	81	36.2	1	3	292	0.00	30.147 
09:05	41.9	41.9	41.9	80	36.2	1	4	270	0.00	30.147 
09:10	42.2	42.2	42.2	79	36.2	1	3	338	0.00	30.147 
09:15	42.3	42.3	42.3	79	36.3	1	3	0	0.00	30.156 
09:20	42.3	42.3	42.3	78	35.9	1	6	315	0.00	30.156 
09:25	42.5	42.5	42.5	79	36.5	1	5	315	0.00	30.156 
09:30	42.8	42.8	42.8	78	36.4	1	6	315	0.00	30.160 
09:35	42.8	42.8	42.8	78	36.4	0	3	0	0.00	30.160 
09:40	43.1	43.1	43.1	77	36.4	1	5	270	0.00	30.160 
09:45	43.2	43.2	43.2	77	36.5	1	6	292	0.00	30.155 
09:50	43.5	43.5	43.5	77	36.8	1	4	292	0.00	30.155 
09:55	43.9	43.9	43.9	77	37.2	1	7	315	0.00	30.155 
10:00	44.3	44.3	44.3	75	36.9	1	5	315	0.00	30.162 
10:05	44.8	44.8	44.8	75	37.4	1	2	45	0.00	30.162 
10:10	45.1	45.1	45.1	74	37.3	1	3	0	0.00	30.162 
10:15	45.2	45.2	45.2	74	37.4	2	6	0	0.00	30.166 
10:20	45.7	45.7	45.7	74	37.9	2	7	292	0.00	30.166 
10:25	46.1	46.1	46.1	72	37.6	2	6	292	0.00	30.166 
10:30	46.5	46.5	46.5	71	37.6	1	5	112	0.00	30.170 
10:35	46.7	46.7	46.7	71	37.8	1	5	270	0.00	30.170 
10:40	47.0	47.0	47.0	71	38.1	1	5	292	0.00	30.170 
10:45	46.4	46.4	46.4	70	37.2	2	10	315	0.00	30.173 
10:50	46.0	46.0	46.0	71	37.1	1	5	68	0.00	30.173 
10:55	46.1	46.1	46.1	73	37.9	1	6	338	0.00	30.173 
11:00	46.0	46.0	46.0	72	37.5	1	4	315	0.00	30.180 
11:05	45.8	45.8	45.8	72	37.3	2	6	292	0.00	30.180 
11:10	45.8	45.8	45.8	73	37.6	1	6	338	0.00	30.180 
11:15	45.8	45.8	45.8	72	37.3	2	5	338	0.00	30.181 
11:20	45.8	45.8	45.8	72	37.3	2	5	315	0.00	30.181 
11:25	46.0	46.0	46.0	72	37.5	1	4	248	0.00	30.181 
11:30	45.8	45.8	45.8	72	37.3	1	7	0	0.00	30.190 
11:35	46.0	46.0	46.0	72	37.5	1	7	0	0.00	30.190 
11:40	46.1	46.1	46.1	73	37.9	1	3	270	0.00	30.190 
11:45	46.1	46.1	46.1	71	37.2	1	5	270	0.00	30.194 
11:50	46.2	46.2	46.2	72	37.7	1	5	0	0.00	30.194 
11:55	46.1	46.1	46.1	71	37.2	1	6	0	0.00	30.194 
12:00	46.2	46.2	46.2	72	37.7	0	2	270	0.00	30.196 
12:05	46.4	46.4	46.4	70	37.2	1	4	270	0.00	30.196 
12:10	46.4	46.4	46.4	69	36.8	1	5	338	0.00	30.196 
12:15	46.5	46.5	46.5	70	37.3	1	3	0	0.00	30.197 
12:20	46.7	46.7	46.7	70	37.4	1	5	292	0.00	30.197 
12:25	46.8	46.8	46.8	69	37.2	1	5	90	0.00	30.197 
12:30	46.8	46.8	46.8	69	37.2	1	6	338	0.00	30.197 
12:35	46.8	46.8	46.8	69	37.2	1	4	270	0.00	30.197 
12:40	47.0	47.0	47.0	69	37.4	1	6	292	0.00	30.197 
12:45	47.0	47.0	47.0	69	37.4	2	5	292	0.00	30.204 
12:50	47.1	47.1	47.1	69	37.5	1	4	315	0.00	30.204 
12:55	47.4	47.4	47.4	68	37.4	1	3	315	0.00	30.204 
13:00	47.4	47.4	47.4	68	37.4	1	4	338	0.00	30.203 
13:05	47.4	47.4	47.4	68	37.4	1	4	315	0.00	30.203 
13:10	47.4	47.4	47.4	69	37.7	1	7	270	0.00	30.203 
13:15	47.7	47.7	47.7	68	37.7	1	5	270	0.00	30.197 
13:20	47.7	47.7	47.7	68	37.7	0	2	338	0.00	30.197 
13:25	48.0	48.0	48.0	67	37.6	0	2	338	0.00	30.197 
13:30	48.3	48.3	48.3	67	37.9	1	4	292	0.00	30.198 
13:35	48.5	48.5	48.5	66	37.7	1	4	315	0.00	30.198 
13:40	48.6	48.6	48.6	64	37.0	1	5	270	0.00	30.198 
13:45	48.8	48.8	48.8	65	37.6	1	5	315	0.00	30.194 
13:50	49.4	49.4	49.4	65	38.1	1	4	315	0.00	30.194 
13:55	50.2	50.2	50.2	62	37.7	2	9	292	0.00	30.194 
14:00	50.5	50.5	50.5	60	37.1	1	4	292	0.00	30.184 
14:05	50.5	50.5	50.5	60	37.1	1	4	315	0.00	30.184 
14:10	50.1	50.1	50.1	61	37.2	2	4	315	0.00	30.184 
14:15	50.1	50.1	50.1	61	37.2	1	4	248	0.00	30.181 
14:20	51.1	51.1	51.1	61	38.1	1	4	270	0.00	30.181 
14:25	51.3	51.3	51.3	58	37.0	1	5	22	0.00	30.181 
14:30	51.6	51.6	51.6	59	37.7	1	4	135	0.00	30.176 
14:35	51.9	51.9	51.9	58	37.6	1	5	315	0.00	30.176 
14:40	52.2	52.2	52.2	56	37.0	1	5	292	0.00	30.176 
14:45	52.0	52.0	52.0	56	36.8	2	4	292	0.00	30.173 
14:50	51.9	51.9	51.9	55	36.2	2	6	315	0.00	30.173 
14:55	52.2	52.2	52.2	55	36.5	2	7	315	0.00	30.173 
15:00	52.5	52.5	52.5	55	36.8	1	4	315	0.00	30.171 
15:05	53.1	53.1	53.1	58	38.7	1	4	90	0.00	30.171 
15:10	53.3	53.3	53.3	55	37.5	2	6	292	0.00	30.171 
15:15	53.2	53.2	53.2	54	37.0	1	4	292	0.00	30.169 
15:20	53.3	53.3	53.3	54	37.1	1	4	315	0.00	30.169 
15:25	53.3	53.3	53.3	53	36.6	2	7	315	0.00	30.169 
15:30	53.5	53.5	53.5	54	37.3	1	4	292	0.00	30.168 
15:35	53.6	53.6	53.6	53	36.9	2	7	270	0.00	30.168 
15:40	53.5	53.5	53.5	54	37.3	1	4	292	0.00	30.168 
15:45	53.6	53.6	53.6	52	36.4	1	3	22	0.00	30.169 
15:50	53.8	53.8	53.8	52	36.6	2	4	292	0.00	30.169 
15:55	53.6	53.6	53.6	51	35.9	2	7	292	0.00	30.169 
16:00	53.6	53.6	53.6	51	35.9	1	4	315	0.00	30.168 
16:05	53.6	53.6	53.6	51	35.9	1	4	158	0.00	30.168 
16:10	53.8	53.8	53.8	53	37.1	1	4	45	0.00	30.168 
16:15	53.9	53.9	53.9	51	36.2	1	6	0	0.00	30.173 
16:20	53.8	53.8	53.8	52	36.6	1	3	292	0.00	30.173 
16:25	53.8	53.8	53.8	52	36.6	1	5	292	0.00	30.173 
16:30	53.9	53.9	53.9	51	36.2	1	4	112	0.00	30.168 
16:35	53.9	53.9	53.9	52	36.7	1	3	90	0.00	30.168 
16:40	53.8	53.8	53.8	50	35.6	1	4	270	0.00	30.168 
16:45	54.1	54.1	54.1	52	36.9	1	3	270	0.00	30.169 
16:50	54.1	54.1	54.1	49	35.4	1	7	0	0.00	30.169 
16:55	54.1	54.1	54.1	50	35.9	2	5	270	0.00	30.169 
17:00	54.1	54.1	54.1	50	35.9	2	5	315	0.00	30.170 
17:05	54.1	54.1	54.1	50	35.9	1	5	292	0.00	30.170 
17:10	54.1	54.1	54.1	50	35.9	1	2	292	0.00	30.170 
17:15	54.1	54.1	54.1	50	35.9	1	4	292	0.00	30.173 
17:20	53.9	53.9	53.9	49	35.2	1	4	292	0.00	30.173 
17:25	53.9	53.9	53.9	50	35.7	0	4	0	0.00	30.173 
17:30	53.9	53.9	53.9	51	36.2	0	2	0	0.00	30.178 
17:35	53.8	53.8	53.8	51	36.1	1	4	22	0.00	30.178 
17:40	53.6	53.6	53.6	51	35.9	0	3	248	0.00	30.178 
17:45	53.5	53.5	53.5	52	36.3	1	4	225	0.00	30.176 
17:50	53.5	53.5	53.5	51	35.8	1	2	315	0.00	30.176 
17:55	53.5	53.5	53.5	51	35.8	0	2	315	0.00	30.176 
18:00	53.2	53.2	53.2	50	35.0	1	4	68	0.00	30.179 
18:05	52.9	52.9	52.9	49	34.3	1	4	270	0.00	30.179 
18:10	52.9	52.9	52.9	50	34.8	1	3	315	0.00	30.179 
18:15	52.9	52.9	52.9	50	34.8	1	5	0	0.00	30.180 
18:20	52.6	52.6	52.6	51	35.0	1	4	68	0.00	30.180 
18:25	52.3	52.3	52.3	51	34.7	0	2	270	0.00	30.180 
18:30	52.0	52.0	52.0	51	34.4	0	2	270	0.00	30.185 
18:35	51.9	51.9	51.9	51	34.3	1	4	270	0.00	30.185 
18:40	51.7	51.7	51.7	51	34.2	0	1	112	0.00	30.185 
18:45	51.4	51.4	51.4	52	34.4	0	1	112	0.00	30.186 
18:50	51.3	51.3	51.3	53	34.8	0	1	90	0.00	30.186 
18:55	51.1	51.1	51.1	54	35.0	0	1	90	0.00	30.186 
19:00	51.0	51.0	51.0	54	34.9	0	2	90	0.00	30.186 
19:05	50.8	50.8	50.8	54	34.8	0	1	90	0.00	30.186 
19:10	50.5	50.5	50.5	54	34.5	0	1	90	0.00	30.186 
19:15	50.2	50.2	50.2	55	34.7	0	0	---	0.00	30.187 
19:20	49.9	49.9	49.9	56	34.8	0	0	---	0.00	30.187 
19:25	49.6	49.6	49.6	57	35.0	0	0	---	0.00	30.187 
19:30	49.2	49.2	49.2	58	35.1	0	0	---	0.00	30.190 
19:35	48.9	48.9	48.9	58	34.8	0	0	---	0.00	30.190 
19:40	48.5	48.5	48.5	59	34.8	0	0	---	0.00	30.190 
19:45	48.0	48.0	48.0	60	34.8	0	0	---	0.00	30.190 
19:50	47.7	47.7	47.7	61	34.9	0	0	---	0.00	30.190 
19:55	47.3	47.3	47.3	62	34.9	0	0	---	0.00	30.190 
20:00	47.0	47.0	47.0	62	34.7	0	0	---	0.00	30.193 
20:05	46.7	46.7	46.7	64	35.2	0	0	---	0.00	30.193 
20:10	46.2	46.2	46.2	65	35.1	0	0	---	0.00	30.193 
20:15	46.0	46.0	46.0	65	34.9	0	0	---	0.00	30.198 
20:20	45.7	45.7	45.7	66	35.0	0	0	---	0.00	30.198 
20:25	45.4	45.4	45.4	67	35.1	0	0	---	0.00	30.198 
20:30	45.1	45.1	45.1	69	35.5	0	0	---	0.00	30.202 
20:35	44.8	44.8	44.8	70	35.6	0	0	---	0.00	30.202 
20:40	44.5	44.5	44.5	70	35.3	0	0	---	0.00	30.202 
20:45	44.2	44.2	44.2	71	35.4	0	0	---	0.00	30.207 
20:50	43.8	43.8	43.8	72	35.4	0	0	---	0.00	30.207 
20:55	43.5	43.5	43.5	73	35.4	0	0	---	0.00	30.207 
21:00	43.1	43.1	43.1	75	35.7	0	0	---	0.00	30.213 
21:05	42.8	42.8	42.8	76	35.8	0	0	---	0.00	30.213 
21:10	42.5	42.5	42.5	77	35.8	0	0	---	0.00	30.213 
21:15	42.2	42.2	42.2	77	35.5	0	0	---	0.00	30.211 
21:20	41.9	41.9	41.9	78	35.5	0	0	---	0.00	30.211 
21:25	41.8	41.8	41.8	80	36.1	0	0	---	0.00	30.211 
21:30	41.5	41.5	41.5	80	35.8	0	0	---	0.00	30.209 
21:35	41.3	41.3	41.3	81	35.9	0	0	---	0.00	30.209 
21:40	41.1	41.1	41.1	81	35.7	0	0	---	0.00	30.209 
21:45	40.9	40.9	40.9	82	35.8	0	0	---	0.00	30.212 
21:50	40.8	40.8	40.8	82	35.7	0	0	---	0.00	30.212 
21:55	40.6	40.6	40.6	83	35.8	0	0	---	0.00	30.212 
22:00	40.5	40.5	40.5	84	36.1	0	0	---	0.00	30.212 
22:05	40.3	40.3	40.3	84	35.9	0	0	---	0.00	30.212 
22:10	40.3	40.3	40.3	85	36.2	0	0	---	0.00	30.212 
22:15	40.3	40.3	40.3	85	36.2	0	0	---	0.00	30.214 
22:20	40.2	40.2	40.2	85	36.1	0	0	---	0.00	30.214 
22:25	40.1	40.1	40.1	86	36.3	0	0	---	0.00	30.214 
22:30	39.9	39.9	39.9	86	36.1	0	0	---	0.00	30.214 
22:35	39.8	39.8	39.8	86	36.0	0	0	---	0.00	30.214 
22:40	39.6	39.6	39.6	86	35.8	0	0	---	0.00	30.214 
22:45	39.6	39.6	39.6	86	35.8	0	0	---	0.00	30.212 
22:50	39.5	39.5	39.5	87	36.0	0	0	---	0.00	30.212 
22:55	39.5	39.5	39.5	87	36.0	0	0	---	0.00	30.212 
23:00	39.3	39.3	39.3	87	35.8	0	0	---	0.00	30.213 
23:05	39.8	39.8	39.8	88	36.5	0	1	90	0.00	30.213 
23:10	40.2	40.2	40.2	88	36.9	0	0	---	0.00	30.213 
23:15	40.6	40.6	40.6	87	37.0	0	0	---	0.00	30.210 
23:20	40.9	40.9	40.9	86	37.0	0	0	---	0.00	30.210 
23:25	41.1	41.1	41.1	86	37.2	0	0	---	0.00	30.210 
23:30	41.3	41.3	41.3	85	37.1	0	0	---	0.00	30.212 
23:35	41.5	41.5	41.5	85	37.3	0	0	---	0.00	30.212 
23:40	41.5	41.5	41.5	85	37.3	0	1	90	0.00	30.212 
23:45	41.5	41.5	41.5	84	37.0	0	0	---	0.00	30.214 
23:50	41.5	41.5	41.5	85	37.3	0	0	---	0.00	30.214 
23:55	41.5	41.5	41.5	85	37.3	0	0	---	0.00	30.214 

CoCoRaHS
IN-AL-39
A2 Web Hosting
Creative Commons License
GoDaddy
search engine by freefind advanced

loaded 2018-11-18 12:15:00 • last modified 2010-11-18 10:43:29
Privacy PolicyDisclaimer
• wx.awcolley.com is powered by PmWiki v.2002016 •
• all content (unless otherwise noted) © 2018 A W Colley